createdAt,value
2023-04-16T00:07:44.165Z,9.90
2023-04-16T00:22:46.418Z,9.80
2023-04-16T00:37:48.424Z,10.45
2023-04-16T00:52:51.038Z,7.43
2023-04-16T01:07:53.095Z,9.43
2023-04-16T01:22:55.269Z,7.40
2023-04-16T01:37:57.349Z,10.98
2023-04-16T01:52:59.454Z,12.68
2023-04-16T02:08:01.611Z,10.02
2023-04-16T02:23:04.061Z,12.40
2023-04-16T02:38:06.496Z,9.45
2023-04-16T02:53:08.667Z,11.23
2023-04-16T03:08:11.030Z,10.70
2023-04-16T03:23:13.010Z,9.68
2023-04-16T03:38:15.025Z,8.38
2023-04-16T03:53:17.110Z,9.77
2023-04-16T04:08:19.171Z,9.32
2023-04-16T04:23:21.174Z,11.38
2023-04-16T04:38:25.494Z,13.10
2023-04-16T04:53:27.451Z,16.42
2023-04-16T05:08:29.456Z,14.82
2023-04-16T05:23:31.518Z,12.45
2023-04-16T05:38:33.528Z,13.38
2023-04-16T05:53:35.503Z,11.30
2023-04-16T06:08:37.588Z,12.00
2023-04-16T06:23:39.559Z,11.90
2023-04-16T06:38:41.625Z,11.07
2023-04-16T06:53:43.896Z,11.35
2023-04-16T07:08:46.409Z,10.48
2023-04-16T07:23:48.352Z,8.57
2023-04-16T07:38:50.351Z,8.68
2023-04-16T07:53:52.537Z,7.97
2023-04-16T08:08:54.596Z,10.00
2023-04-16T08:23:56.760Z,10.30
2023-04-16T08:38:58.982Z,9.35
2023-04-16T08:54:04.852Z,13.77
2023-04-16T09:09:08.024Z,11.75
2023-04-16T09:24:10.734Z,12.80
2023-04-16T09:39:20.966Z,14.05
2023-04-16T09:54:22.925Z,13.65
2023-04-16T10:09:24.989Z,12.00
2023-04-16T10:24:28.457Z,11.93
2023-04-16T10:39:33.293Z,11.70
2023-04-16T10:54:39.078Z,11.38
2023-04-16T11:09:49.982Z,11.98
2023-04-16T11:24:58.175Z,12.75
2023-04-16T11:40:00.437Z,12.00
2023-04-16T11:55:03.065Z,11.90
2023-04-16T12:10:07.906Z,9.80
2023-04-16T12:25:15.354Z,11.80
2023-04-16T12:40:17.445Z,14.48
2023-04-16T12:55:19.712Z,14.43
2023-04-16T13:10:23.705Z,12.45
2023-04-16T13:25:26.096Z,11.75
2023-04-16T13:40:28.669Z,9.48
2023-04-16T13:55:32.449Z,14.85
2023-04-16T14:10:35.671Z,13.82
2023-04-16T14:25:38.750Z,12.43
2023-04-16T14:40:40.923Z,13.05
2023-04-16T14:55:43.151Z,15.00
2023-04-16T15:10:46.071Z,14.52
2023-04-16T15:25:48.546Z,17.67
2023-04-16T15:40:51.359Z,13.77
2023-04-16T15:55:54.361Z,13.52
2023-04-16T16:10:57.067Z,13.95
2023-04-16T16:26:00.103Z,12.75
2023-04-16T16:41:03.155Z,12.23
2023-04-16T16:56:06.162Z,18.33
2023-04-16T17:11:09.333Z,16.10
2023-04-16T17:26:12.454Z,16.55
2023-04-16T17:41:17.488Z,18.88
2023-04-16T17:56:20.059Z,18.05
2023-04-16T18:11:22.643Z,19.25
2023-04-16T18:26:25.465Z,22.20
2023-04-16T18:41:28.449Z,20.02
2023-04-16T18:56:31.980Z,20.50
2023-04-16T19:11:34.961Z,18.65
2023-04-16T19:26:38.212Z,19.17
2023-04-16T19:41:40.563Z,17.95
2023-04-16T19:56:42.973Z,17.63
2023-04-16T20:11:45.656Z,21.63
2023-04-16T20:26:48.082Z,23.00
2023-04-16T20:41:57.517Z,21.48
2023-04-16T20:56:59.839Z,22.70
2023-04-16T21:12:02.104Z,22.95
2023-04-16T21:27:04.193Z,23.67
2023-04-16T21:42:06.277Z,23.80
2023-04-16T21:57:08.242Z,22.85
2023-04-16T22:12:12.982Z,23.15
2023-04-16T22:27:14.921Z,23.52
2023-04-16T22:42:16.932Z,27.15
2023-04-16T22:57:21.408Z,25.65
2023-04-16T23:12:23.358Z,24.83
2023-04-16T23:27:25.454Z,24.10
2023-04-16T23:42:27.504Z,22.77
2023-04-16T23:57:29.581Z,21.75
